Bolivar, Tennessee
Current Conditions -  °F | °C
As of 7:53 AM on Sunday 25 Jan 2015 (Local Time) from KMKL Reporting Station
Few Clouds Few Clouds  
Wind Chill: 33°   Ceiling: Unl
Heat Index: 41°   Visibility: 10mi
Dew Point: 34°   Wind: 14mph
Humidity: 76%   Direction: 190°S
Pressure: 29.75"   Gusts: NA
Location:  35.26°N, 88.99°W
Report Text: KMKL 251353Z 19012KT 10SM FEW100 05/01 A2975 RMK AO2 SLP076 T00500011
Loading
Personal Weather Stations






























Interactive Weather Map New forecast layout! Learn more

10-Day Weather Forecast

Advertisements
Track Severe Weather on mobile